LPPR Airport Information

Runway Information
Runway 17 Length 11417 ft width 148 ft
Elevation 151 ft Threshold 984 ft Heading 169
Runway 35 Length 11417 ft Width 148 ft
Elevation 226 ft Threshold 492 ft Heading 349
Airport Frequencies
Type APP Name APP Frequency 121.1 MHZ
Type ATIS Name ATIS Frequency 124.3 MHZ
Type TWR Name TWR Frequency 118 MHZ
Airport Navaids
Type NDB Name Porto Frequency 367 KHZ
Type NDB Name Porto Frequency 327 KHZ
Type VOR-DME Name Porto Frequency 114100 KHZ
Airport Weather Information & NOTAM
ADDS - METARS form results

(0135 UTC 19 August 2018)
 
METAR text: LPPR 190130Z 07007KT CAVOK 23/06 Q1017
Conditions at: LPPR (PORTO/PEDRAS RUB, PT) observed 0130 UTC 19 August 2018
Temperature: 23.0°C (73°F)
Dewpoint: 6.0°C (43°F) [RH = 33%]
Pressure (altimeter): 30.03 inches Hg (1017.0 mb)
Winds: from the ENE (70 degrees) at 8 MPH (7 knots; 3.6 m/s)
Visibility: 6 or more miles (10+ km)
Ceiling: ceiling and visibility are OK
Clouds: unknown
Weather: no significant weather observed at this time

METAR text: LPPR 190100Z 08006KT CAVOK 22/07 Q1017
Conditions at: LPPR (PORTO/PEDRAS RUB, PT) observed 0100 UTC 19 August 2018
Temperature: 22.0°C (72°F)
Dewpoint: 7.0°C (45°F) [RH = 38%]
Pressure (altimeter): 30.03 inches Hg (1017.0 mb)
Winds: from the E (80 degrees) at 7 MPH (6 knots; 3.1 m/s)
Visibility: 6 or more miles (10+ km)
Ceiling: ceiling and visibility are OK
Clouds: unknown
Weather: no significant weather observed at this time